createdAt,value
2018-11-07T00:01:44.829Z,99570.18
2018-11-07T00:04:17.240Z,99565.75
2018-11-07T00:06:49.428Z,99574.13
2018-11-07T00:09:21.811Z,99575.26
2018-11-07T00:11:53.719Z,99578.02
2018-11-07T00:14:26.351Z,99578.48
2018-11-07T00:16:58.578Z,99588.17
2018-11-07T00:19:30.523Z,99594.38
2018-11-07T00:22:05.405Z,99600.11
2018-11-07T00:24:37.587Z,99602.27
2018-11-07T00:27:09.653Z,99612.05
2018-11-07T00:29:42.010Z,99610.36
2018-11-07T00:32:14.094Z,99622.77
2018-11-07T00:34:46.410Z,99618.06
2018-11-07T00:37:18.477Z,99623.23
2018-11-07T00:39:50.478Z,99626.28
2018-11-07T00:42:22.549Z,99628.91
2018-11-07T00:44:55.135Z,99626.84
2018-11-07T00:47:27.382Z,99623.17
2018-11-07T00:49:59.458Z,99636.61
2018-11-07T00:52:31.278Z,99636.14
2018-11-07T00:55:03.293Z,99634.27
2018-11-07T00:57:35.335Z,99637.27
2018-11-07T01:00:11.534Z,99636.52
2018-11-07T01:02:43.364Z,99635.98
2018-11-07T01:05:15.680Z,99639.71
2018-11-07T01:07:48.496Z,99645.91
2018-11-07T01:10:20.566Z,99650.08
2018-11-07T01:12:52.845Z,99651.17
2018-11-07T01:15:25.288Z,99665.30
2018-11-07T01:17:57.350Z,99661.72
2018-11-07T01:20:29.489Z,99666.97
2018-11-07T01:23:01.684Z,99667.19
2018-11-07T01:25:34.048Z,99663.39
2018-11-07T01:28:06.419Z,99671.95
2018-11-07T01:30:38.537Z,99676.53
2018-11-07T01:33:10.835Z,99679.55
2018-11-07T01:35:57.714Z,99683.58
2018-11-07T01:38:29.947Z,99683.63
2018-11-07T01:41:01.843Z,99685.23
2018-11-07T01:43:34.228Z,99689.16
2018-11-07T01:46:07.154Z,99696.51
2018-11-07T01:48:39.343Z,99699.05
2018-11-07T01:51:11.315Z,99698.19
2018-11-07T01:53:43.515Z,99705.14
2018-11-07T01:56:15.739Z,99708.91
2018-11-07T01:58:47.711Z,99716.25
2018-11-07T02:01:19.732Z,99716.52
2018-11-07T02:03:51.640Z,99722.16
2018-11-07T02:06:23.759Z,99722.45
2018-11-07T02:08:55.596Z,99732.76
2018-11-07T02:11:27.320Z,99748.38
2018-11-07T02:13:58.786Z,99746.12
2018-11-07T02:16:30.845Z,99746.67
2018-11-07T02:19:03.007Z,99764.55
2018-11-07T02:21:34.979Z,99766.02
2018-11-07T02:24:07.323Z,99768.30
2018-11-07T02:26:40.202Z,99768.89
2018-11-07T02:29:15.145Z,99764.24
2018-11-07T02:31:47.673Z,99774.13
2018-11-07T02:34:19.714Z,99774.88
2018-11-07T02:36:51.731Z,99777.61
2018-11-07T02:39:23.663Z,99780.52
2018-11-07T02:41:55.921Z,99786.91
2018-11-07T02:44:28.364Z,99787.48
2018-11-07T02:47:00.758Z,99783.90
2018-11-07T02:49:33.079Z,99789.36
2018-11-07T02:52:06.084Z,99801.77
2018-11-07T02:54:38.286Z,99801.39
2018-11-07T02:57:10.488Z,99805.33
2018-11-07T02:59:42.547Z,99809.75
2018-11-07T03:02:14.666Z,99813.31
2018-11-07T03:04:46.644Z,99821.33
2018-11-07T03:07:18.844Z,99820.28
2018-11-07T03:09:51.365Z,99824.31
2018-11-07T03:12:23.534Z,99827.65
2018-11-07T03:14:55.376Z,99833.14
2018-11-07T03:17:27.734Z,99835.13
2018-11-07T03:19:59.684Z,99837.70
2018-11-07T03:22:32.191Z,99843.14
2018-11-07T03:25:04.306Z,99845.12
2018-11-07T03:27:36.324Z,99853.11
2018-11-07T03:30:09.359Z,99858.63
2018-11-07T03:32:41.235Z,99857.53
2018-11-07T03:35:17.545Z,99862.32
2018-11-07T03:37:49.504Z,99867.84
2018-11-07T03:40:21.905Z,99869.16
2018-11-07T03:42:54.013Z,99872.64
2018-11-07T03:45:31.158Z,99867.37
2018-11-07T03:48:03.647Z,99880.75
2018-11-07T03:50:35.577Z,99879.05
2018-11-07T03:53:07.697Z,99875.48
2018-11-07T03:55:39.632Z,99876.03
2018-11-07T03:58:11.652Z,99880.37
2018-11-07T04:00:43.852Z,99887.33
2018-11-07T04:05:42.947Z,99895.50
2018-11-07T04:08:17.681Z,99896.55
2018-11-07T04:10:49.345Z,99900.13
2018-11-07T04:13:21.456Z,99900.13
2018-11-07T04:16:45.450Z,99900.59
2018-11-07T04:19:18.425Z,99902.75
2018-11-07T04:21:50.774Z,99907.17
2018-11-07T04:24:22.497Z,99904.54
2018-11-07T04:26:54.678Z,99908.48
2018-11-07T04:29:27.997Z,99903.31
2018-11-07T04:32:00.361Z,99910.27
2018-11-07T04:34:32.408Z,99903.69
2018-11-07T04:37:04.700Z,99906.41
2018-11-07T04:39:36.985Z,99902.84
2018-11-07T04:42:09.701Z,99903.31
2018-11-07T04:44:41.894Z,99903.31
2018-11-07T04:47:13.882Z,99906.32
2018-11-07T04:49:46.607Z,99900.59
2018-11-07T04:52:18.864Z,99898.89
2018-11-07T04:54:50.772Z,99897.11
2018-11-07T04:57:22.619Z,99892.39
2018-11-07T04:59:54.580Z,99894.09
2018-11-07T05:02:26.364Z,99890.58
2018-11-07T05:04:58.394Z,99885.66
2018-11-07T05:07:30.474Z,99882.56
2018-11-07T05:10:02.647Z,99878.98
2018-11-07T05:12:34.605Z,99877.11
2018-11-07T05:15:07.264Z,99884.63
2018-11-07T05:17:39.794Z,99880.77
2018-11-07T05:20:13.425Z,99869.58
2018-11-07T05:22:45.559Z,99866.56
2018-11-07T05:25:17.819Z,99868.27
2018-11-07T05:27:49.939Z,99875.02
2018-11-07T05:30:22.211Z,99868.80
2018-11-07T05:32:54.203Z,99866.95
2018-11-07T05:35:26.313Z,99864.10
2018-11-07T05:37:58.208Z,99872.13
2018-11-07T05:40:30.294Z,99860.76
2018-11-07T05:43:02.455Z,99859.19
2018-11-07T05:45:34.516Z,99851.38
2018-11-07T05:48:07.767Z,99857.58
2018-11-07T05:50:40.612Z,99857.11
2018-11-07T05:53:12.698Z,99854.95
2018-11-07T05:55:45.047Z,99847.60
2018-11-07T05:58:17.081Z,99840.20
2018-11-07T06:00:49.256Z,99837.28
2018-11-07T06:03:21.196Z,99835.02
2018-11-07T06:05:53.450Z,99825.43
2018-11-07T06:08:25.609Z,99823.35
2018-11-07T06:10:57.881Z,99825.98
2018-11-07T06:13:30.031Z,99822.50
2018-11-07T06:16:02.768Z,99810.66
2018-11-07T06:18:34.797Z,99813.20
2018-11-07T06:21:07.670Z,99805.93
2018-11-07T06:23:40.026Z,99810.00
2018-11-07T06:26:12.245Z,99801.34
2018-11-07T06:28:44.889Z,99803.22
2018-11-07T06:31:17.194Z,99789.20
2018-11-07T06:33:49.014Z,99789.30
2018-11-07T06:36:21.313Z,99782.37
2018-11-07T06:38:53.279Z,99776.62
2018-11-07T06:41:25.352Z,99776.51
2018-11-07T06:43:57.352Z,99766.56
2018-11-07T06:46:29.542Z,99763.94
2018-11-07T06:49:01.557Z,99761.39
2018-11-07T06:57:08.151Z,99742.65
2018-11-07T06:59:40.271Z,99738.91
2018-11-07T07:02:12.440Z,99738.53
2018-11-07T07:04:44.578Z,99729.70
2018-11-07T07:07:16.754Z,99733.27
2018-11-07T07:09:48.854Z,99729.32
2018-11-07T07:12:21.247Z,99721.02
2018-11-07T07:14:53.329Z,99714.62
2018-11-07T07:17:25.546Z,99718.09
2018-11-07T07:19:57.749Z,99705.59
2018-11-07T07:22:30.164Z,99699.19
2018-11-07T07:25:02.313Z,99698.81
2018-11-07T07:27:34.627Z,99690.07
2018-11-07T07:30:08.392Z,99687.34
2018-11-07T07:32:40.854Z,99687.72
2018-11-07T07:35:13.261Z,99680.01
2018-11-07T07:37:45.527Z,99677.38
2018-11-07T07:40:17.926Z,99677.94
2018-11-07T07:42:50.329Z,99674.08
2018-11-07T07:45:22.333Z,99665.33
2018-11-07T07:47:54.519Z,99662.70
2018-11-07T07:50:26.494Z,99659.31
2018-11-07T07:52:59.125Z,99657.62
2018-11-07T07:55:30.880Z,99652.73
2018-11-07T07:58:02.695Z,99650.56
2018-11-07T08:00:35.593Z,99649.25
2018-11-07T08:03:07.730Z,99644.36
2018-11-07T08:05:39.469Z,99643.89
2018-11-07T08:08:11.555Z,99640.22
2018-11-07T08:10:43.600Z,99640.69
2018-11-07T08:13:15.748Z,99635.42
2018-11-07T08:15:47.592Z,99631.56
2018-11-07T08:18:19.775Z,99630.25
2018-11-07T08:20:51.457Z,99624.52
2018-11-07T08:23:23.914Z,99617.08
2018-11-07T08:25:55.869Z,99615.30
2018-11-07T08:28:27.786Z,99616.61
2018-11-07T08:31:02.024Z,99616.14
2018-11-07T08:33:34.592Z,99608.14
2018-11-07T08:36:06.892Z,99604.66
2018-11-07T08:38:39.069Z,99604.66
2018-11-07T08:41:10.885Z,99603.81
2018-11-07T08:43:42.984Z,99601.19
2018-11-07T08:46:15.077Z,99598.08
2018-11-07T08:48:47.172Z,99599.30
2018-11-07T08:51:19.089Z,99593.66
2018-11-07T08:53:51.512Z,99592.34
2018-11-07T08:56:23.259Z,99586.98
2018-11-07T08:58:55.294Z,99583.84
2018-11-07T09:01:27.491Z,99585.06
2018-11-07T09:03:59.928Z,99581.58
2018-11-07T09:06:31.932Z,99578.95
2018-11-07T09:09:04.658Z,99577.16
2018-11-07T09:11:36.709Z,99571.05
2018-11-07T09:14:08.970Z,99575.38
2018-11-07T09:16:41.004Z,99573.68
2018-11-07T09:19:13.055Z,99571.89
2018-11-07T09:21:44.917Z,99566.16
2018-11-07T09:24:17.530Z,99564.36
2018-11-07T09:26:49.592Z,99553.73
2018-11-07T09:29:21.777Z,99552.89
2018-11-07T09:31:54.013Z,99547.14
2018-11-07T09:34:26.069Z,99548.47
2018-11-07T09:36:57.961Z,99549.31
2018-11-07T09:39:29.931Z,99549.69
2018-11-07T09:42:01.905Z,99546.58
2018-11-07T09:44:34.278Z,99545.60
2018-11-07T09:47:06.637Z,99544.28
2018-11-07T09:49:38.948Z,99540.33
2018-11-07T09:52:11.142Z,99545.13
2018-11-07T09:54:43.544Z,99539.39
2018-11-07T09:57:15.705Z,99536.76
2018-11-07T09:59:47.900Z,99535.44
2018-11-07T10:02:20.227Z,99537.59
2018-11-07T10:04:52.006Z,99530.55
2018-11-07T10:07:24.026Z,99536.19
2018-11-07T10:09:56.109Z,99534.39
2018-11-07T10:12:29.010Z,99528.28
2018-11-07T10:15:01.170Z,99535.81
2018-11-07T10:17:33.337Z,99533.55
2018-11-07T10:20:05.765Z,99533.92
2018-11-07T10:22:37.951Z,99528.66
2018-11-07T10:25:10.741Z,99530.34
2018-11-07T10:27:43.359Z,99534.77
2018-11-07T10:30:16.720Z,99529.88
2018-11-07T10:32:50.701Z,99532.03
2018-11-07T10:35:22.867Z,99533.59
2018-11-07T10:37:54.953Z,99529.17
2018-11-07T10:40:26.802Z,99532.55
2018-11-07T10:42:58.852Z,99529.55
2018-11-07T10:45:31.076Z,99533.50
2018-11-07T10:48:03.259Z,99541.41
2018-11-07T10:50:35.278Z,99540.93
2018-11-07T10:53:07.323Z,99537.45
2018-11-07T10:55:40.836Z,99539.14
2018-11-07T10:58:12.929Z,99537.45
2018-11-07T11:00:49.609Z,99538.20
2018-11-07T11:03:26.199Z,99534.81
2018-11-07T11:05:58.240Z,99536.13
2018-11-07T11:08:31.728Z,99538.77
2018-11-07T11:11:03.872Z,99533.88
2018-11-07T11:13:36.048Z,99539.14
2018-11-07T11:16:08.063Z,99533.50
2018-11-07T11:18:39.824Z,99539.14
2018-11-07T11:21:11.922Z,99546.09
2018-11-07T11:23:43.999Z,99536.87
2018-11-07T11:26:16.601Z,99544.21
2018-11-07T11:28:48.634Z,99540.73
2018-11-07T11:31:21.323Z,99540.36
2018-11-07T11:33:53.504Z,99542.52
2018-11-07T11:36:25.754Z,99543.84
2018-11-07T11:38:57.712Z,99543.84
2018-11-07T11:41:29.703Z,99544.31
2018-11-07T11:44:01.828Z,99546.47
2018-11-07T11:46:34.895Z,99549.11
2018-11-07T11:49:07.061Z,99553.06
2018-11-07T11:51:39.076Z,99557.48
2018-11-07T11:54:11.260Z,99557.48
2018-11-07T11:56:44.444Z,99564.06
2018-11-07T11:59:16.699Z,99564.06
2018-11-07T12:01:48.611Z,99569.81
2018-11-07T12:04:20.621Z,99571.97
2018-11-07T12:06:52.505Z,99575.45
2018-11-07T12:09:24.626Z,99579.41
2018-11-07T12:11:56.893Z,99575.83
2018-11-07T12:14:28.725Z,99579.17
2018-11-07T12:17:00.497Z,99588.40
2018-11-07T12:19:32.629Z,99586.70
2018-11-07T12:22:04.594Z,99585.39
2018-11-07T12:24:36.591Z,99587.26
2018-11-07T12:27:09.004Z,99588.67
2018-11-07T12:29:41.116Z,99587.92
2018-11-07T12:32:13.817Z,99591.03
2018-11-07T12:34:45.831Z,99591.88
2018-11-07T12:37:17.947Z,99597.99
2018-11-07T12:39:50.552Z,99602.89
2018-11-07T12:42:24.555Z,99598.94
2018-11-07T12:44:56.523Z,99601.94
2018-11-07T12:47:28.464Z,99605.90
2018-11-07T12:50:00.414Z,99608.53
2018-11-07T12:52:32.451Z,99611.59
2018-11-07T12:55:04.652Z,99604.73
2018-11-07T12:57:37.566Z,99612.91
2018-11-07T13:00:13.195Z,99611.22
2018-11-07T13:02:45.320Z,99609.52
2018-11-07T13:05:18.343Z,99613.23
2018-11-07T13:07:50.976Z,99615.39
2018-11-07T13:10:23.419Z,99621.14
2018-11-07T13:12:55.678Z,99628.20
2018-11-07T13:15:27.925Z,99624.62
2018-11-07T13:18:00.152Z,99622.92
2018-11-07T13:20:32.213Z,99623.77
2018-11-07T13:23:05.279Z,99628.57
2018-11-07T13:25:37.330Z,99633.37
2018-11-07T13:28:09.676Z,99634.69
2018-11-07T13:30:41.804Z,99636.47
2018-11-07T13:33:14.226Z,99633.37
2018-11-07T13:35:46.174Z,99639.58
2018-11-07T13:38:18.441Z,99644.85
2018-11-07T13:40:50.445Z,99643.06
2018-11-07T13:43:22.696Z,99651.91
2018-11-07T13:45:54.485Z,99654.55
2018-11-07T13:48:26.814Z,99655.39
2018-11-07T13:50:59.066Z,99658.03
2018-11-07T13:53:32.368Z,99660.19
2018-11-07T13:56:04.179Z,99664.98
2018-11-07T13:58:36.960Z,99667.63
2018-11-07T14:01:08.658Z,99672.89
2018-11-07T14:03:41.153Z,99680.42
2018-11-07T14:06:13.272Z,99680.89
2018-11-07T14:08:45.290Z,99681.41
2018-11-07T14:11:17.384Z,99686.83
2018-11-07T14:13:49.313Z,99677.41
2018-11-07T14:16:21.620Z,99681.84
2018-11-07T14:18:53.872Z,99687.11
2018-11-07T14:21:25.884Z,99680.05
2018-11-07T14:23:57.838Z,99687.58
2018-11-07T14:26:29.746Z,99695.95
2018-11-07T14:29:02.384Z,99696.42
2018-11-07T14:31:36.344Z,99699.05
2018-11-07T14:34:08.936Z,99706.59
2018-11-07T14:36:40.592Z,99709.34
2018-11-07T14:39:12.800Z,99710.54
2018-11-07T14:41:44.636Z,99714.14
2018-11-07T14:44:16.479Z,99711.61
2018-11-07T14:46:48.381Z,99714.71
2018-11-07T14:49:20.463Z,99720.83
2018-11-07T14:51:52.545Z,99717.72
2018-11-07T14:54:24.640Z,99716.03
2018-11-07T14:56:56.608Z,99719.04
2018-11-07T14:59:29.038Z,99713.39
2018-11-07T15:02:01.980Z,99719.52
2018-11-07T15:04:34.330Z,99720.92
2018-11-07T15:07:06.796Z,99711.42
2018-11-07T15:09:39.082Z,99716.25
2018-11-07T15:12:10.363Z,99725.44
2018-11-07T15:14:41.943Z,99721.77
2018-11-07T15:17:13.625Z,99726.09
2018-11-07T15:19:45.844Z,99723.94
2018-11-07T15:22:17.770Z,99727.89
2018-11-07T15:24:49.955Z,99728.27
2018-11-07T15:27:21.925Z,99726.56
2018-11-07T15:29:55.425Z,99730.42
2018-11-07T15:32:28.933Z,99729.58
2018-11-07T15:35:01.002Z,99733.91
2018-11-07T15:37:33.020Z,99722.99
2018-11-07T15:40:05.287Z,99716.88
2018-11-07T15:42:37.372Z,99717.34
2018-11-07T15:45:10.568Z,99719.52
2018-11-07T15:47:44.708Z,99713.39
2018-11-07T15:50:22.071Z,99707.59
2018-11-07T15:52:54.164Z,99711.29
2018-11-07T16:05:28.953Z,99718.13
2018-11-07T16:08:01.527Z,99714.19
2018-11-07T16:10:33.937Z,99711.02
2018-11-07T16:13:06.709Z,99702.67
2018-11-07T16:15:38.969Z,99703.90
2018-11-07T16:18:10.994Z,99705.24
2018-11-07T16:20:43.074Z,99700.03
2018-11-07T16:23:15.253Z,99712.45
2018-11-07T16:25:47.457Z,99706.23
2018-11-07T16:28:19.768Z,99709.05
2018-11-07T16:30:51.746Z,99713.10
2018-11-07T16:33:24.442Z,99718.42
2018-11-07T16:35:56.283Z,99724.27
2018-11-07T16:38:28.863Z,99730.00
2018-11-07T16:41:02.221Z,99730.25
2018-11-07T16:43:34.317Z,99729.23
2018-11-07T16:46:06.468Z,99723.39
2018-11-07T16:48:40.347Z,99733.13
2018-11-07T16:51:12.746Z,99732.30
2018-11-07T16:53:46.575Z,99740.01
2018-11-07T16:56:19.383Z,99738.31
2018-11-07T16:58:52.607Z,99742.11
2018-11-07T17:01:24.922Z,99748.68
2018-11-07T17:03:57.391Z,99748.46
2018-11-07T17:06:29.663Z,99745.19
2018-11-07T17:09:02.214Z,99757.52
2018-11-07T17:11:36.010Z,99749.50
2018-11-07T17:14:07.932Z,99756.45
2018-11-07T17:16:40.020Z,99753.83
2018-11-07T17:19:11.872Z,99751.67
2018-11-07T17:21:43.932Z,99751.19
2018-11-07T17:24:16.215Z,99750.08
2018-11-07T17:26:48.026Z,99753.45
2018-11-07T18:18:02.565Z,99727.62
2018-11-07T18:20:35.172Z,99730.70
2018-11-07T18:23:07.574Z,99725.22
2018-11-07T18:25:39.295Z,99723.81
2018-11-07T18:28:11.563Z,99720.64
2018-11-07T18:30:43.615Z,99726.37
2018-11-07T18:33:15.852Z,99721.48
2018-11-07T18:35:48.161Z,99722.41
2018-11-07T18:38:22.822Z,99713.20
2018-11-07T18:40:55.627Z,99711.04
2018-11-07T18:43:27.933Z,99707.00
2018-11-07T18:46:00.068Z,99697.41
2018-11-07T18:48:32.659Z,99698.44
2018-11-07T18:51:05.442Z,99697.13
2018-11-07T18:53:37.396Z,99699.66
2018-11-07T18:57:48.198Z,99700.61
2018-11-07T19:00:21.244Z,99698.52
2018-11-07T19:02:53.500Z,99697.33
2018-11-07T19:05:25.609Z,99693.38
2018-11-07T19:07:57.819Z,99695.06
2018-11-07T19:10:29.896Z,99699.86
2018-11-07T19:13:01.612Z,99693.08
2018-11-07T19:15:33.657Z,99694.96
2018-11-07T19:18:07.055Z,99693.64
2018-11-07T19:20:39.159Z,99695.80
2018-11-07T19:23:11.715Z,99700.22
2018-11-07T21:08:14.981Z,99640.89
2018-11-07T21:10:47.501Z,99646.88
2018-11-07T21:13:19.631Z,99642.77
2018-11-07T21:15:51.726Z,99642.00
2018-11-07T21:18:23.858Z,99637.69
2018-11-07T21:20:55.801Z,99641.16
2018-11-07T21:23:27.896Z,99636.95
2018-11-07T21:25:59.873Z,99629.91
2018-11-07T21:28:31.945Z,99636.02
2018-11-07T21:31:03.945Z,99629.79
2018-11-07T21:33:36.140Z,99633.95
2018-11-07T21:36:08.264Z,99634.33
2018-11-07T21:38:40.717Z,99632.92
2018-11-07T21:41:13.226Z,99633.48
2018-11-07T21:43:45.445Z,99636.74
2018-11-07T21:46:17.556Z,99621.53
2018-11-07T21:48:50.200Z,99630.90
2018-11-07T21:51:22.751Z,99632.99
2018-11-07T21:53:55.001Z,99640.22
2018-11-07T21:56:26.987Z,99637.80
2018-11-07T21:58:59.152Z,99642.02
2018-11-07T22:01:31.134Z,99637.45
2018-11-07T22:04:03.437Z,99637.53
2018-11-07T22:06:35.580Z,99638.38
2018-11-07T22:09:10.232Z,99633.59
2018-11-07T22:11:42.873Z,99637.06
2018-11-07T22:14:15.134Z,99638.09
2018-11-07T22:16:47.167Z,99632.27
2018-11-07T22:19:19.427Z,99634.73
2018-11-07T22:21:51.728Z,99633.98
2018-11-07T22:24:23.781Z,99636.23
2018-11-07T22:26:55.799Z,99630.89
2018-11-07T22:29:27.899Z,99631.52
2018-11-07T22:32:00.007Z,99632.11
2018-11-07T22:34:31.955Z,99634.15
2018-11-07T22:37:03.965Z,99630.95
2018-11-07T22:39:36.050Z,99639.41
2018-11-07T22:42:08.919Z,99634.73
2018-11-07T22:44:40.998Z,99632.20
2018-11-07T22:47:12.899Z,99635.86
2018-11-07T22:49:45.014Z,99638.20
2018-11-07T22:52:17.641Z,99642.34
2018-11-07T22:54:49.740Z,99646.84
2018-11-07T22:57:22.033Z,99643.37
2018-11-07T22:59:54.048Z,99632.84
2018-11-07T23:02:26.047Z,99639.26
2018-11-07T23:04:58.215Z,99639.17
2018-11-07T23:10:04.808Z,99644.14
2018-11-07T23:12:37.606Z,99645.63
2018-11-07T23:15:09.859Z,99645.75
2018-11-07T23:17:41.963Z,99645.83
2018-11-07T23:20:14.147Z,99646.30
2018-11-07T23:22:46.183Z,99655.12
2018-11-07T23:25:18.169Z,99651.18
2018-11-07T23:27:50.191Z,99658.98
2018-11-07T23:30:22.256Z,99657.58
2018-11-07T23:32:54.523Z,99656.44
2018-11-07T23:35:26.672Z,99650.89
2018-11-07T23:37:58.661Z,99654.49
2018-11-07T23:40:30.724Z,99653.82
2018-11-07T23:51:59.565Z,99668.11
2018-11-07T23:54:31.976Z,99674.95
2018-11-07T23:57:04.174Z,99672.31
2018-11-07T23:59:36.383Z,99677.41
